sensor_id;sensor_type;location;lat;lon;timestamp;P1;durP1;ratioP1;P2;durP2;ratioP2
61640;SDS011;62201;49.966;8.342;2023-12-28T00:00:21;16.40;;;9.23;;
61640;SDS011;62201;49.966;8.342;2023-12-28T00:02:50;12.70;;;8.33;;
61640;SDS011;62201;49.966;8.342;2023-12-28T00:05:15;13.17;;;8.20;;
61640;SDS011;62201;49.966;8.342;2023-12-28T00:07:41;14.10;;;8.93;;
61640;SDS011;62201;49.966;8.342;2023-12-28T00:10:07;11.47;;;7.97;;
61640;SDS011;62201;49.966;8.342;2023-12-28T00:12:33;15.33;;;8.27;;
61640;SDS011;62201;49.966;8.342;2023-12-28T00:14:59;13.17;;;7.87;;
61640;SDS011;62201;49.966;8.342;2023-12-28T00:17:24;13.17;;;7.47;;
61640;SDS011;62201;49.966;8.342;2023-12-28T00:19:50;11.50;;;6.63;;
61640;SDS011;62201;49.966;8.342;2023-12-28T00:22:16;12.67;;;6.97;;
61640;SDS011;62201;49.966;8.342;2023-12-28T00:24:41;13.97;;;7.30;;
61640;SDS011;62201;49.966;8.342;2023-12-28T00:27:07;12.03;;;7.30;;
61640;SDS011;62201;49.966;8.342;2023-12-28T00:29:32;12.50;;;7.03;;
61640;SDS011;62201;49.966;8.342;2023-12-28T00:31:59;8.37;;;4.67;;
61640;SDS011;62201;49.966;8.342;2023-12-28T00:34:25;6.50;;;4.20;;
61640;SDS011;62201;49.966;8.342;2023-12-28T00:36:50;8.47;;;3.63;;
61640;SDS011;62201;49.966;8.342;2023-12-28T00:39:16;9.13;;;4.60;;
61640;SDS011;62201;49.966;8.342;2023-12-28T00:41:41;5.57;;;4.07;;
61640;SDS011;62201;49.966;8.342;2023-12-28T00:44:07;8.93;;;4.57;;
61640;SDS011;62201;49.966;8.342;2023-12-28T00:46:35;6.33;;;4.00;;
61640;SDS011;62201;49.966;8.342;2023-12-28T00:49:01;13.20;;;3.70;;
61640;SDS011;62201;49.966;8.342;2023-12-28T00:51:26;8.83;;;3.80;;
61640;SDS011;62201;49.966;8.342;2023-12-28T00:53:52;7.03;;;3.87;;
61640;SDS011;62201;49.966;8.342;2023-12-28T00:56:18;9.47;;;4.17;;
61640;SDS011;62201;49.966;8.342;2023-12-28T00:58:45;9.33;;;4.20;;
61640;SDS011;62201;49.966;8.342;2023-12-28T01:01:11;7.17;;;4.17;;
61640;SDS011;62201;49.966;8.342;2023-12-28T01:03:36;7.93;;;3.63;;
61640;SDS011;62201;49.966;8.342;2023-12-28T01:06:06;7.27;;;3.97;;
61640;SDS011;62201;49.966;8.342;2023-12-28T01:08:31;7.13;;;3.83;;
61640;SDS011;62201;49.966;8.342;2023-12-28T01:11:07;7.53;;;3.73;;
61640;SDS011;62201;49.966;8.342;2023-12-28T01:13:35;9.57;;;3.97;;
61640;SDS011;62201;49.966;8.342;2023-12-28T01:16:01;5.87;;;3.57;;
61640;SDS011;62201;49.966;8.342;2023-12-28T01:18:27;8.30;;;3.80;;
61640;SDS011;62201;49.966;8.342;2023-12-28T01:20:52;6.93;;;4.10;;
61640;SDS011;62201;49.966;8.342;2023-12-28T01:23:18;5.30;;;3.67;;
61640;SDS011;62201;49.966;8.342;2023-12-28T01:25:44;5.70;;;3.60;;
61640;SDS011;62201;49.966;8.342;2023-12-28T01:28:09;11.20;;;3.47;;
61640;SDS011;62201;49.966;8.342;2023-12-28T01:30:35;7.23;;;3.90;;
61640;SDS011;62201;49.966;8.342;2023-12-28T01:33:00;11.90;;;6.07;;
61640;SDS011;62201;49.966;8.342;2023-12-28T01:35:26;7.43;;;3.97;;
61640;SDS011;62201;49.966;8.342;2023-12-28T01:37:52;7.90;;;4.00;;
61640;SDS011;62201;49.966;8.342;2023-12-28T01:40:17;7.13;;;3.50;;
61640;SDS011;62201;49.966;8.342;2023-12-28T01:42:44;6.57;;;3.60;;
61640;SDS011;62201;49.966;8.342;2023-12-28T01:45:10;7.97;;;3.83;;
61640;SDS011;62201;49.966;8.342;2023-12-28T01:47:35;7.67;;;4.00;;
61640;SDS011;62201;49.966;8.342;2023-12-28T01:50:01;6.00;;;3.50;;
61640;SDS011;62201;49.966;8.342;2023-12-28T01:52:27;6.90;;;3.47;;
61640;SDS011;62201;49.966;8.342;2023-12-28T01:54:54;7.60;;;3.60;;
61640;SDS011;62201;49.966;8.342;2023-12-28T01:57:20;5.60;;;3.33;;
61640;SDS011;62201;49.966;8.342;2023-12-28T01:59:45;6.87;;;3.67;;
61640;SDS011;62201;49.966;8.342;2023-12-28T02:02:11;6.17;;;3.23;;
61640;SDS011;62201;49.966;8.342;2023-12-28T02:04:36;6.90;;;3.50;;
61640;SDS011;62201;49.966;8.342;2023-12-28T02:07:02;7.33;;;3.77;;
61640;SDS011;62201;49.966;8.342;2023-12-28T02:09:27;6.07;;;3.53;;
61640;SDS011;62201;49.966;8.342;2023-12-28T02:11:53;7.27;;;3.97;;
61640;SDS011;62201;49.966;8.342;2023-12-28T02:14:20;9.10;;;3.97;;
61640;SDS011;62201;49.966;8.342;2023-12-28T02:16:47;10.37;;;4.30;;
61640;SDS011;62201;49.966;8.342;2023-12-28T02:19:25;8.82;;;4.38;;
61640;SDS011;62201;49.966;8.342;2023-12-28T02:22:05;6.53;;;4.40;;
61640;SDS011;62201;49.966;8.342;2023-12-28T02:24:32;8.07;;;4.33;;
61640;SDS011;62201;49.966;8.342;2023-12-28T02:27:13;6.70;;;3.87;;
61640;SDS011;62201;49.966;8.342;2023-12-28T02:29:38;9.70;;;3.90;;
61640;SDS011;62201;49.966;8.342;2023-12-28T02:32:04;6.20;;;3.90;;
61640;SDS011;62201;49.966;8.342;2023-12-28T02:34:34;7.20;;;4.37;;
61640;SDS011;62201;49.966;8.342;2023-12-28T02:37:05;8.57;;;3.70;;
61640;SDS011;62201;49.966;8.342;2023-12-28T02:39:30;5.63;;;3.97;;
61640;SDS011;62201;49.966;8.342;2023-12-28T02:41:57;7.23;;;4.20;;
61640;SDS011;62201;49.966;8.342;2023-12-28T02:44:22;8.30;;;4.30;;
61640;SDS011;62201;49.966;8.342;2023-12-28T02:46:48;6.17;;;3.77;;
61640;SDS011;62201;49.966;8.342;2023-12-28T02:49:13;6.17;;;3.70;;
61640;SDS011;62201;49.966;8.342;2023-12-28T02:51:40;9.90;;;4.20;;
61640;SDS011;62201;49.966;8.342;2023-12-28T02:54:07;8.17;;;3.50;;
61640;SDS011;62201;49.966;8.342;2023-12-28T02:56:33;6.80;;;3.43;;
61640;SDS011;62201;49.966;8.342;2023-12-28T02:58:58;6.30;;;3.47;;
61640;SDS011;62201;49.966;8.342;2023-12-28T03:01:23;5.27;;;3.10;;
61640;SDS011;62201;49.966;8.342;2023-12-28T03:03:49;4.57;;;2.50;;
61640;SDS011;62201;49.966;8.342;2023-12-28T03:06:14;5.47;;;3.30;;
61640;SDS011;62201;49.966;8.342;2023-12-28T03:08:39;4.97;;;2.40;;
61640;SDS011;62201;49.966;8.342;2023-12-28T03:11:05;8.60;;;2.97;;
61640;SDS011;62201;49.966;8.342;2023-12-28T03:13:30;5.53;;;2.73;;
61640;SDS011;62201;49.966;8.342;2023-12-28T03:15:57;6.00;;;2.60;;
61640;SDS011;62201;49.966;8.342;2023-12-28T03:18:22;4.40;;;2.33;;
61640;SDS011;62201;49.966;8.342;2023-12-28T03:20:48;5.57;;;2.80;;
61640;SDS011;62201;49.966;8.342;2023-12-28T03:23:13;5.07;;;2.50;;
61640;SDS011;62201;49.966;8.342;2023-12-28T03:25:38;4.67;;;2.40;;
61640;SDS011;62201;49.966;8.342;2023-12-28T03:28:04;9.07;;;3.03;;
61640;SDS011;62201;49.966;8.342;2023-12-28T03:30:29;7.60;;;2.90;;
61640;SDS011;62201;49.966;8.342;2023-12-28T03:32:54;4.10;;;2.93;;
61640;SDS011;62201;49.966;8.342;2023-12-28T03:35:20;6.05;;;2.72;;
61640;SDS011;62201;49.966;8.342;2023-12-28T03:37:45;3.78;;;2.42;;
61640;SDS011;62201;49.966;8.342;2023-12-28T03:40:11;3.28;;;2.30;;
61640;SDS011;62201;49.966;8.342;2023-12-28T03:42:36;4.30;;;2.60;;
61640;SDS011;62201;49.966;8.342;2023-12-28T03:45:03;6.17;;;2.60;;
61640;SDS011;62201;49.966;8.342;2023-12-28T03:47:29;4.60;;;2.25;;
61640;SDS011;62201;49.966;8.342;2023-12-28T03:49:54;4.75;;;2.55;;
61640;SDS011;62201;49.966;8.342;2023-12-28T03:52:21;5.20;;;2.53;;
61640;SDS011;62201;49.966;8.342;2023-12-28T03:54:48;5.35;;;2.90;;
61640;SDS011;62201;49.966;8.342;2023-12-28T03:57:13;6.00;;;2.78;;
61640;SDS011;62201;49.966;8.342;2023-12-28T03:59:39;5.43;;;2.67;;
61640;SDS011;62201;49.966;8.342;2023-12-28T04:02:05;4.35;;;2.50;;
61640;SDS011;62201;49.966;8.342;2023-12-28T04:04:30;4.47;;;2.90;;
61640;SDS011;62201;49.966;8.342;2023-12-28T04:06:56;3.97;;;2.67;;
61640;SDS011;62201;49.966;8.342;2023-12-28T04:09:21;6.60;;;3.22;;
61640;SDS011;62201;49.966;8.342;2023-12-28T04:11:46;3.67;;;2.50;;
61640;SDS011;62201;49.966;8.342;2023-12-28T04:14:12;4.37;;;2.60;;
61640;SDS011;62201;49.966;8.342;2023-12-28T04:16:37;4.85;;;2.78;;
61640;SDS011;62201;49.966;8.342;2023-12-28T04:19:02;3.08;;;2.38;;
61640;SDS011;62201;49.966;8.342;2023-12-28T04:21:28;4.07;;;2.70;;
61640;SDS011;62201;49.966;8.342;2023-12-28T04:23:53;4.15;;;2.60;;
61640;SDS011;62201;49.966;8.342;2023-12-28T04:26:19;5.07;;;2.90;;
61640;SDS011;62201;49.966;8.342;2023-12-28T04:28:47;4.23;;;2.93;;
61640;SDS011;62201;49.966;8.342;2023-12-28T04:31:12;4.67;;;2.73;;
61640;SDS011;62201;49.966;8.342;2023-12-28T04:33:38;3.63;;;2.67;;
61640;SDS011;62201;49.966;8.342;2023-12-28T04:36:03;5.15;;;2.80;;
61640;SDS011;62201;49.966;8.342;2023-12-28T04:38:32;5.80;;;2.93;;
61640;SDS011;62201;49.966;8.342;2023-12-28T04:40:57;5.77;;;2.60;;
61640;SDS011;62201;49.966;8.342;2023-12-28T04:43:24;6.43;;;3.00;;
61640;SDS011;62201;49.966;8.342;2023-12-28T04:45:50;4.25;;;2.22;;
61640;SDS011;62201;49.966;8.342;2023-12-28T04:48:16;2.95;;;2.45;;
61640;SDS011;62201;49.966;8.342;2023-12-28T04:50:45;5.30;;;2.55;;
61640;SDS011;62201;49.966;8.342;2023-12-28T04:53:11;4.22;;;2.55;;
61640;SDS011;62201;49.966;8.342;2023-12-28T04:55:36;4.50;;;2.80;;
61640;SDS011;62201;49.966;8.342;2023-12-28T04:58:01;5.03;;;2.38;;
61640;SDS011;62201;49.966;8.342;2023-12-28T05:00:27;5.03;;;2.53;;
61640;SDS011;62201;49.966;8.342;2023-12-28T05:02:52;3.70;;;2.40;;
61640;SDS011;62201;49.966;8.342;2023-12-28T05:05:17;3.00;;;2.17;;
61640;SDS011;62201;49.966;8.342;2023-12-28T05:07:43;5.03;;;2.37;;
61640;SDS011;62201;49.966;8.342;2023-12-28T05:10:08;3.47;;;2.20;;
61640;SDS011;62201;49.966;8.342;2023-12-28T05:12:34;3.37;;;2.23;;
61640;SDS011;62201;49.966;8.342;2023-12-28T05:14:59;4.40;;;2.53;;
61640;SDS011;62201;49.966;8.342;2023-12-28T05:17:24;4.45;;;2.42;;
61640;SDS011;62201;49.966;8.342;2023-12-28T05:19:50;3.80;;;2.23;;
61640;SDS011;62201;49.966;8.342;2023-12-28T05:22:15;3.80;;;2.37;;
61640;SDS011;62201;49.966;8.342;2023-12-28T05:24:40;3.47;;;2.30;;
61640;SDS011;62201;49.966;8.342;2023-12-28T05:27:06;2.97;;;2.30;;
61640;SDS011;62201;49.966;8.342;2023-12-28T05:29:31;3.67;;;2.20;;
61640;SDS011;62201;49.966;8.342;2023-12-28T05:31:56;4.33;;;2.30;;
61640;SDS011;62201;49.966;8.342;2023-12-28T05:34:22;4.87;;;2.30;;
61640;SDS011;62201;49.966;8.342;2023-12-28T05:36:47;4.67;;;2.43;;
61640;SDS011;62201;49.966;8.342;2023-12-28T05:39:12;3.40;;;2.10;;
61640;SDS011;62201;49.966;8.342;2023-12-28T05:41:40;5.45;;;2.67;;
61640;SDS011;62201;49.966;8.342;2023-12-28T05:44:06;5.53;;;2.40;;
61640;SDS011;62201;49.966;8.342;2023-12-28T05:46:31;4.28;;;2.63;;
61640;SDS011;62201;49.966;8.342;2023-12-28T05:48:57;5.50;;;2.20;;
61640;SDS011;62201;49.966;8.342;2023-12-28T05:51:23;4.03;;;2.50;;
61640;SDS011;62201;49.966;8.342;2023-12-28T05:53:48;4.38;;;2.20;;
61640;SDS011;62201;49.966;8.342;2023-12-28T05:56:14;4.73;;;2.33;;
61640;SDS011;62201;49.966;8.342;2023-12-28T05:58:39;6.22;;;2.88;;
61640;SDS011;62201;49.966;8.342;2023-12-28T06:01:04;4.30;;;2.33;;
61640;SDS011;62201;49.966;8.342;2023-12-28T06:03:30;5.47;;;2.50;;
61640;SDS011;62201;49.966;8.342;2023-12-28T06:05:56;5.50;;;2.37;;
61640;SDS011;62201;49.966;8.342;2023-12-28T06:08:21;3.13;;;2.30;;
61640;SDS011;62201;49.966;8.342;2023-12-28T06:10:47;5.13;;;2.73;;
61640;SDS011;62201;49.966;8.342;2023-12-28T06:13:12;3.63;;;2.20;;
61640;SDS011;62201;49.966;8.342;2023-12-28T06:15:38;4.50;;;2.20;;
61640;SDS011;62201;49.966;8.342;2023-12-28T06:18:03;5.83;;;2.47;;
61640;SDS011;62201;49.966;8.342;2023-12-28T06:20:29;4.10;;;2.40;;
61640;SDS011;62201;49.966;8.342;2023-12-28T06:22:54;3.47;;;2.40;;
61640;SDS011;62201;49.966;8.342;2023-12-28T06:25:20;5.13;;;2.40;;
61640;SDS011;62201;49.966;8.342;2023-12-28T06:27:45;4.30;;;2.40;;
61640;SDS011;62201;49.966;8.342;2023-12-28T06:30:11;4.73;;;2.30;;
61640;SDS011;62201;49.966;8.342;2023-12-28T06:32:36;4.47;;;2.67;;
61640;SDS011;62201;49.966;8.342;2023-12-28T06:35:02;3.97;;;1.90;;
61640;SDS011;62201;49.966;8.342;2023-12-28T06:37:27;4.03;;;1.90;;
61640;SDS011;62201;49.966;8.342;2023-12-28T06:39:53;3.83;;;2.10;;
61640;SDS011;62201;49.966;8.342;2023-12-28T06:42:18;1.40;;;1.30;;
61640;SDS011;62201;49.966;8.342;2023-12-28T06:44:44;3.03;;;1.73;;
61640;SDS011;62201;49.966;8.342;2023-12-28T06:47:09;4.07;;;1.70;;
61640;SDS011;62201;49.966;8.342;2023-12-28T06:49:35;3.93;;;1.80;;
61640;SDS011;62201;49.966;8.342;2023-12-28T06:52:00;3.27;;;1.80;;
61640;SDS011;62201;49.966;8.342;2023-12-28T06:54:25;2.47;;;1.40;;
61640;SDS011;62201;49.966;8.342;2023-12-28T06:56:51;2.37;;;1.50;;
61640;SDS011;62201;49.966;8.342;2023-12-28T06:59:16;3.23;;;1.50;;
61640;SDS011;62201;49.966;8.342;2023-12-28T07:01:42;5.27;;;1.33;;
61640;SDS011;62201;49.966;8.342;2023-12-28T07:04:09;3.87;;;1.43;;
61640;SDS011;62201;49.966;8.342;2023-12-28T07:06:34;3.40;;;1.70;;
61640;SDS011;62201;49.966;8.342;2023-12-28T07:09:00;2.00;;;1.30;;
61640;SDS011;62201;49.966;8.342;2023-12-28T07:11:25;3.47;;;1.70;;
61640;SDS011;62201;49.966;8.342;2023-12-28T07:13:54;4.47;;;1.73;;
61640;SDS011;62201;49.966;8.342;2023-12-28T07:16:19;2.73;;;1.60;;
61640;SDS011;62201;49.966;8.342;2023-12-28T07:18:44;3.33;;;1.40;;
61640;SDS011;62201;49.966;8.342;2023-12-28T07:21:10;3.23;;;1.50;;
61640;SDS011;62201;49.966;8.342;2023-12-28T07:23:35;3.60;;;1.47;;
61640;SDS011;62201;49.966;8.342;2023-12-28T07:26:01;2.93;;;1.60;;
61640;SDS011;62201;49.966;8.342;2023-12-28T07:28:27;2.57;;;1.50;;
61640;SDS011;62201;49.966;8.342;2023-12-28T07:30:53;2.05;;;1.25;;
61640;SDS011;62201;49.966;8.342;2023-12-28T07:33:18;2.90;;;1.70;;
61640;SDS011;62201;49.966;8.342;2023-12-28T07:35:44;4.07;;;1.60;;
61640;SDS011;62201;49.966;8.342;2023-12-28T07:38:09;2.47;;;1.52;;
61640;SDS011;62201;49.966;8.342;2023-12-28T07:40:34;3.17;;;1.63;;
61640;SDS011;62201;49.966;8.342;2023-12-28T07:43:00;4.50;;;1.75;;
61640;SDS011;62201;49.966;8.342;2023-12-28T07:45:26;3.37;;;1.63;;
61640;SDS011;62201;49.966;8.342;2023-12-28T07:47:51;4.90;;;1.70;;
61640;SDS011;62201;49.966;8.342;2023-12-28T07:50:17;4.00;;;1.80;;
61640;SDS011;62201;49.966;8.342;2023-12-28T07:52:42;4.00;;;2.00;;
61640;SDS011;62201;49.966;8.342;2023-12-28T07:55:08;3.55;;;2.05;;
61640;SDS011;62201;49.966;8.342;2023-12-28T07:57:34;3.70;;;2.00;;
61640;SDS011;62201;49.966;8.342;2023-12-28T08:00:00;4.15;;;1.95;;
61640;SDS011;62201;49.966;8.342;2023-12-28T08:02:25;4.97;;;2.30;;
61640;SDS011;62201;49.966;8.342;2023-12-28T08:04:51;5.07;;;2.47;;
61640;SDS011;62201;49.966;8.342;2023-12-28T08:07:16;3.90;;;2.30;;
61640;SDS011;62201;49.966;8.342;2023-12-28T08:09:42;6.83;;;2.40;;
61640;SDS011;62201;49.966;8.342;2023-12-28T08:12:07;3.20;;;2.10;;
61640;SDS011;62201;49.966;8.342;2023-12-28T08:14:32;3.93;;;2.13;;
61640;SDS011;62201;49.966;8.342;2023-12-28T08:16:58;4.87;;;2.00;;
61640;SDS011;62201;49.966;8.342;2023-12-28T08:19:23;3.73;;;1.80;;
61640;SDS011;62201;49.966;8.342;2023-12-28T08:21:48;3.53;;;1.80;;
61640;SDS011;62201;49.966;8.342;2023-12-28T08:24:13;2.90;;;1.70;;
61640;SDS011;62201;49.966;8.342;2023-12-28T08:26:41;5.10;;;1.60;;
61640;SDS011;62201;49.966;8.342;2023-12-28T08:29:07;4.77;;;1.63;;
61640;SDS011;62201;49.966;8.342;2023-12-28T08:31:32;6.50;;;2.03;;
61640;SDS011;62201;49.966;8.342;2023-12-28T08:33:58;5.13;;;2.50;;
61640;SDS011;62201;49.966;8.342;2023-12-28T08:36:23;3.30;;;1.93;;
61640;SDS011;62201;49.966;8.342;2023-12-28T08:38:48;4.57;;;2.30;;
61640;SDS011;62201;49.966;8.342;2023-12-28T08:41:20;5.00;;;2.10;;
61640;SDS011;62201;49.966;8.342;2023-12-28T08:43:49;5.30;;;1.87;;
61640;SDS011;62201;49.966;8.342;2023-12-28T08:46:14;4.68;;;2.22;;
61640;SDS011;62201;49.966;8.342;2023-12-28T08:48:40;3.83;;;2.00;;
61640;SDS011;62201;49.966;8.342;2023-12-28T08:51:06;6.47;;;2.00;;
61640;SDS011;62201;49.966;8.342;2023-12-28T08:53:31;6.03;;;2.10;;
61640;SDS011;62201;49.966;8.342;2023-12-28T08:55:56;4.70;;;1.95;;
61640;SDS011;62201;49.966;8.342;2023-12-28T08:58:22;3.42;;;1.80;;
61640;SDS011;62201;49.966;8.342;2023-12-28T09:00:47;5.28;;;2.22;;
61640;SDS011;62201;49.966;8.342;2023-12-28T09:03:13;4.50;;;1.90;;
61640;SDS011;62201;49.966;8.342;2023-12-28T09:05:39;4.93;;;1.80;;
61640;SDS011;62201;49.966;8.342;2023-12-28T09:08:04;5.93;;;2.03;;
61640;SDS011;62201;49.966;8.342;2023-12-28T09:10:30;4.40;;;2.10;;
61640;SDS011;62201;49.966;8.342;2023-12-28T09:12:56;4.13;;;1.90;;
61640;SDS011;62201;49.966;8.342;2023-12-28T09:15:21;8.93;;;2.15;;
61640;SDS011;62201;49.966;8.342;2023-12-28T09:17:47;4.85;;;1.48;;
61640;SDS011;62201;49.966;8.342;2023-12-28T09:20:12;5.63;;;1.80;;
61640;SDS011;62201;49.966;8.342;2023-12-28T09:22:38;5.03;;;2.08;;
61640;SDS011;62201;49.966;8.342;2023-12-28T09:25:03;5.32;;;1.85;;
61640;SDS011;62201;49.966;8.342;2023-12-28T09:27:30;3.08;;;1.73;;
61640;SDS011;62201;49.966;8.342;2023-12-28T09:29:55;5.72;;;1.80;;
61640;SDS011;62201;49.966;8.342;2023-12-28T09:32:20;5.45;;;1.80;;
61640;SDS011;62201;49.966;8.342;2023-12-28T09:34:46;4.47;;;2.08;;
61640;SDS011;62201;49.966;8.342;2023-12-28T09:37:11;4.50;;;1.92;;
61640;SDS011;62201;49.966;8.342;2023-12-28T09:39:37;5.50;;;2.08;;
61640;SDS011;62201;49.966;8.342;2023-12-28T09:42:06;3.90;;;1.65;;
61640;SDS011;62201;49.966;8.342;2023-12-28T09:44:41;5.18;;;1.65;;
61640;SDS011;62201;49.966;8.342;2023-12-28T09:47:09;4.55;;;1.73;;
61640;SDS011;62201;49.966;8.342;2023-12-28T09:49:37;3.47;;;1.63;;
61640;SDS011;62201;49.966;8.342;2023-12-28T09:52:04;3.22;;;1.67;;
61640;SDS011;62201;49.966;8.342;2023-12-28T09:54:30;5.43;;;2.25;;
61640;SDS011;62201;49.966;8.342;2023-12-28T09:56:56;3.95;;;1.80;;
61640;SDS011;62201;49.966;8.342;2023-12-28T09:59:21;4.75;;;1.70;;
61640;SDS011;62201;49.966;8.342;2023-12-28T10:01:48;4.30;;;1.70;;
61640;SDS011;62201;49.966;8.342;2023-12-28T10:04:14;3.60;;;1.65;;
61640;SDS011;62201;49.966;8.342;2023-12-28T10:06:41;3.65;;;1.50;;
61640;SDS011;62201;49.966;8.342;2023-12-28T10:09:06;2.88;;;1.45;;
61640;SDS011;62201;49.966;8.342;2023-12-28T10:11:32;3.47;;;1.70;;
61640;SDS011;62201;49.966;8.342;2023-12-28T10:13:58;5.10;;;1.83;;
61640;SDS011;62201;49.966;8.342;2023-12-28T10:16:24;3.00;;;1.98;;
61640;SDS011;62201;49.966;8.342;2023-12-28T10:18:49;3.05;;;1.50;;
61640;SDS011;62201;49.966;8.342;2023-12-28T10:21:14;4.55;;;1.70;;
61640;SDS011;62201;49.966;8.342;2023-12-28T10:23:40;4.25;;;2.03;;
61640;SDS011;62201;49.966;8.342;2023-12-28T10:26:05;5.50;;;1.60;;
61640;SDS011;62201;49.966;8.342;2023-12-28T10:28:31;2.67;;;1.50;;
61640;SDS011;62201;49.966;8.342;2023-12-28T10:30:58;3.95;;;1.48;;
61640;SDS011;62201;49.966;8.342;2023-12-28T10:33:26;4.90;;;1.45;;
61640;SDS011;62201;49.966;8.342;2023-12-28T10:35:51;2.65;;;1.45;;
61640;SDS011;62201;49.966;8.342;2023-12-28T10:38:17;3.88;;;1.20;;
61640;SDS011;62201;49.966;8.342;2023-12-28T10:40:45;2.95;;;1.60;;
61640;SDS011;62201;49.966;8.342;2023-12-28T10:43:15;2.55;;;1.48;;
61640;SDS011;62201;49.966;8.342;2023-12-28T10:45:41;4.25;;;1.63;;
61640;SDS011;62201;49.966;8.342;2023-12-28T10:48:11;5.05;;;1.58;;
61640;SDS011;62201;49.966;8.342;2023-12-28T10:50:40;5.05;;;1.75;;
61640;SDS011;62201;49.966;8.342;2023-12-28T10:59:09;4.65;;;2.00;;
61640;SDS011;62201;49.966;8.342;2023-12-28T11:01:39;3.10;;;1.40;;
61640;SDS011;62201;49.966;8.342;2023-12-28T11:04:07;2.45;;;1.27;;
61640;SDS011;62201;49.966;8.342;2023-12-28T11:06:55;4.20;;;1.50;;
61640;SDS011;62201;49.966;8.342;2023-12-28T11:09:23;5.38;;;1.63;;
61640;SDS011;62201;49.966;8.342;2023-12-28T11:11:51;2.72;;;1.40;;
61640;SDS011;62201;49.966;8.342;2023-12-28T11:14:18;3.53;;;1.30;;
61640;SDS011;62201;49.966;8.342;2023-12-28T11:16:44;2.45;;;1.58;;
61640;SDS011;62201;49.966;8.342;2023-12-28T11:19:10;2.50;;;1.30;;
61640;SDS011;62201;49.966;8.342;2023-12-28T11:21:37;2.47;;;1.20;;
61640;SDS011;62201;49.966;8.342;2023-12-28T11:24:03;3.58;;;1.33;;
61640;SDS011;62201;49.966;8.342;2023-12-28T11:26:29;3.50;;;1.42;;
61640;SDS011;62201;49.966;8.342;2023-12-28T11:29:01;2.67;;;1.58;;
61640;SDS011;62201;49.966;8.342;2023-12-28T11:31:27;4.78;;;1.88;;
61640;SDS011;62201;49.966;8.342;2023-12-28T11:33:53;2.88;;;1.50;;
61640;SDS011;62201;49.966;8.342;2023-12-28T11:36:26;8.35;;;1.75;;
61640;SDS011;62201;49.966;8.342;2023-12-28T11:39:04;3.50;;;1.50;;
61640;SDS011;62201;49.966;8.342;2023-12-28T11:41:32;3.65;;;1.40;;
61640;SDS011;62201;49.966;8.342;2023-12-28T11:44:01;4.85;;;1.85;;
61640;SDS011;62201;49.966;8.342;2023-12-28T11:46:32;4.55;;;1.30;;
61640;SDS011;62201;49.966;8.342;2023-12-28T11:49:02;4.13;;;1.13;;
61640;SDS011;62201;49.966;8.342;2023-12-28T11:51:29;4.10;;;1.50;;
61640;SDS011;62201;49.966;8.342;2023-12-28T11:53:55;4.97;;;1.20;;
61640;SDS011;62201;49.966;8.342;2023-12-28T11:56:20;7.43;;;1.95;;
61640;SDS011;62201;49.966;8.342;2023-12-28T11:58:46;5.68;;;1.77;;
61640;SDS011;62201;49.966;8.342;2023-12-28T12:01:12;5.07;;;1.63;;
61640;SDS011;62201;49.966;8.342;2023-12-28T12:03:38;4.20;;;1.65;;
61640;SDS011;62201;49.966;8.342;2023-12-28T12:06:03;4.50;;;1.45;;
61640;SDS011;62201;49.966;8.342;2023-12-28T12:08:29;6.43;;;1.67;;
61640;SDS011;62201;49.966;8.342;2023-12-28T12:11:07;5.35;;;1.65;;
61640;SDS011;62201;49.966;8.342;2023-12-28T12:13:32;7.40;;;1.75;;
61640;SDS011;62201;49.966;8.342;2023-12-28T12:15:59;5.95;;;1.50;;
61640;SDS011;62201;49.966;8.342;2023-12-28T12:18:25;5.97;;;1.40;;
61640;SDS011;62201;49.966;8.342;2023-12-28T12:20:57;2.78;;;1.45;;
61640;SDS011;62201;49.966;8.342;2023-12-28T12:23:23;4.28;;;1.30;;
61640;SDS011;62201;49.966;8.342;2023-12-28T12:25:49;3.65;;;1.55;;
61640;SDS011;62201;49.966;8.342;2023-12-28T12:28:14;3.47;;;1.75;;
61640;SDS011;62201;49.966;8.342;2023-12-28T12:30:40;5.65;;;1.85;;
61640;SDS011;62201;49.966;8.342;2023-12-28T12:33:05;4.85;;;1.50;;
61640;SDS011;62201;49.966;8.342;2023-12-28T12:35:31;4.95;;;1.80;;
61640;SDS011;62201;49.966;8.342;2023-12-28T12:37:57;5.75;;;1.92;;
61640;SDS011;62201;49.966;8.342;2023-12-28T12:40:22;3.67;;;1.48;;
61640;SDS011;62201;49.966;8.342;2023-12-28T12:42:53;4.57;;;1.75;;
61640;SDS011;62201;49.966;8.342;2023-12-28T12:45:19;5.18;;;1.55;;
61640;SDS011;62201;49.966;8.342;2023-12-28T12:47:46;4.28;;;1.40;;
61640;SDS011;62201;49.966;8.342;2023-12-28T12:50:12;5.50;;;2.20;;
61640;SDS011;62201;49.966;8.342;2023-12-28T12:52:38;4.30;;;1.73;;
61640;SDS011;62201;49.966;8.342;2023-12-28T12:55:04;4.72;;;1.50;;
61640;SDS011;62201;49.966;8.342;2023-12-28T12:57:30;4.50;;;1.63;;
61640;SDS011;62201;49.966;8.342;2023-12-28T12:59:55;4.57;;;2.13;;
61640;SDS011;62201;49.966;8.342;2023-12-28T13:02:24;5.75;;;1.90;;
61640;SDS011;62201;49.966;8.342;2023-12-28T13:04:52;4.75;;;1.50;;
61640;SDS011;62201;49.966;8.342;2023-12-28T13:07:21;4.32;;;1.55;;
61640;SDS011;62201;49.966;8.342;2023-12-28T13:09:46;4.07;;;1.67;;
61640;SDS011;62201;49.966;8.342;2023-12-28T13:12:12;3.85;;;1.80;;
61640;SDS011;62201;49.966;8.342;2023-12-28T13:14:37;5.35;;;1.70;;
61640;SDS011;62201;49.966;8.342;2023-12-28T13:17:03;4.18;;;1.65;;
61640;SDS011;62201;49.966;8.342;2023-12-28T13:19:28;7.30;;;1.70;;
61640;SDS011;62201;49.966;8.342;2023-12-28T13:21:53;4.35;;;1.63;;
61640;SDS011;62201;49.966;8.342;2023-12-28T13:24:19;4.75;;;1.58;;
61640;SDS011;62201;49.966;8.342;2023-12-28T13:26:44;5.50;;;1.70;;
61640;SDS011;62201;49.966;8.342;2023-12-28T13:29:10;5.38;;;1.58;;
61640;SDS011;62201;49.966;8.342;2023-12-28T13:31:35;3.50;;;1.50;;
61640;SDS011;62201;49.966;8.342;2023-12-28T13:34:00;4.82;;;1.63;;
61640;SDS011;62201;49.966;8.342;2023-12-28T13:36:26;3.47;;;1.70;;
61640;SDS011;62201;49.966;8.342;2023-12-28T13:38:53;5.30;;;1.70;;
61640;SDS011;62201;49.966;8.342;2023-12-28T13:41:18;3.08;;;1.50;;
61640;SDS011;62201;49.966;8.342;2023-12-28T13:43:44;3.83;;;1.42;;
61640;SDS011;62201;49.966;8.342;2023-12-28T13:46:09;3.17;;;1.33;;
61640;SDS011;62201;49.966;8.342;2023-12-28T13:48:35;2.30;;;1.40;;
61640;SDS011;62201;49.966;8.342;2023-12-28T13:51:00;2.42;;;1.20;;
61640;SDS011;62201;49.966;8.342;2023-12-28T13:53:26;3.47;;;1.05;;
61640;SDS011;62201;49.966;8.342;2023-12-28T13:55:51;1.98;;;0.90;;
61640;SDS011;62201;49.966;8.342;2023-12-28T13:58:17;2.33;;;0.77;;
61640;SDS011;62201;49.966;8.342;2023-12-28T14:00:42;1.33;;;0.75;;
61640;SDS011;62201;49.966;8.342;2023-12-28T14:03:08;1.20;;;0.70;;
61640;SDS011;62201;49.966;8.342;2023-12-28T14:05:34;1.70;;;0.80;;
61640;SDS011;62201;49.966;8.342;2023-12-28T14:08:00;2.92;;;0.85;;
61640;SDS011;62201;49.966;8.342;2023-12-28T14:10:25;1.52;;;0.90;;
61640;SDS011;62201;49.966;8.342;2023-12-28T14:12:50;1.40;;;0.80;;
61640;SDS011;62201;49.966;8.342;2023-12-28T14:15:16;1.73;;;0.98;;
61640;SDS011;62201;49.966;8.342;2023-12-28T14:17:41;1.75;;;0.93;;
61640;SDS011;62201;49.966;8.342;2023-12-28T14:20:07;1.00;;;0.77;;
61640;SDS011;62201;49.966;8.342;2023-12-28T14:22:36;1.00;;;0.88;;
61640;SDS011;62201;49.966;8.342;2023-12-28T14:25:03;5.70;;;0.90;;
61640;SDS011;62201;49.966;8.342;2023-12-28T14:27:29;0.90;;;0.80;;
61640;SDS011;62201;49.966;8.342;2023-12-28T14:29:55;0.63;;;0.60;;
61640;SDS011;62201;49.966;8.342;2023-12-28T14:32:21;1.33;;;0.85;;
61640;SDS011;62201;49.966;8.342;2023-12-28T14:34:46;1.08;;;0.60;;
61640;SDS011;62201;49.966;8.342;2023-12-28T14:37:12;0.95;;;0.75;;
61640;SDS011;62201;49.966;8.342;2023-12-28T14:39:37;1.33;;;0.60;;
61640;SDS011;62201;49.966;8.342;2023-12-28T14:42:03;1.48;;;0.75;;
61640;SDS011;62201;49.966;8.342;2023-12-28T14:44:29;1.15;;;0.60;;
61640;SDS011;62201;49.966;8.342;2023-12-28T14:46:54;1.23;;;0.80;;